sensor_id;sensor_type;location;lat;lon;timestamp;pressure;altitude;pressure_sealevel;temperature;humidity
78843;BME280;70542;53.774;-0.352;2023-11-21T00:04:57;101530;;;9;62
78843;BME280;70542;53.774;-0.352;2023-11-21T00:10:36;101530;;;9;65
78843;BME280;70542;53.774;-0.352;2023-11-21T00:16:16;101540;;;10;61
78843;BME280;70542;53.774;-0.352;2023-11-21T00:21:57;101540;;;9;63
78843;BME280;70542;53.774;-0.352;2023-11-21T00:27:53;101560;;;9;64
78843;BME280;70542;53.774;-0.352;2023-11-21T00:33:32;101580;;;8;67
78843;BME280;70542;53.774;-0.352;2023-11-21T00:39:12;101590;;;8;67
78843;BME280;70542;53.774;-0.352;2023-11-21T00:44:50;101600;;;7;70
78843;BME280;70542;53.774;-0.352;2023-11-21T00:50:53;101610;;;7;73
78843;BME280;70542;53.774;-0.352;2023-11-21T00:56:40;101620;;;7;73
78843;BME280;70542;53.774;-0.352;2023-11-21T01:02:20;101620;;;7;73
78843;BME280;70542;53.774;-0.352;2023-11-21T01:07:58;101620;;;7;70
78843;BME280;70542;53.774;-0.352;2023-11-21T01:13:38;101630;;;7;68
78843;BME280;70542;53.774;-0.352;2023-11-21T01:19:17;101640;;;8;66
78843;BME280;70542;53.774;-0.352;2023-11-21T01:24:56;101640;;;8;65
78843;BME280;70542;53.774;-0.352;2023-11-21T01:30:35;101640;;;8;63
78843;BME280;70542;53.774;-0.352;2023-11-21T01:36:14;101650;;;8;64
78843;BME280;70542;53.774;-0.352;2023-11-21T01:41:54;101650;;;8;63
78843;BME280;70542;53.774;-0.352;2023-11-21T01:47:33;101660;;;7;65
78843;BME280;70542;53.774;-0.352;2023-11-21T01:53:12;101680;;;7;65
78843;BME280;70542;53.774;-0.352;2023-11-21T01:58:52;101690;;;7;66
78843;BME280;70542;53.774;-0.352;2023-11-21T02:04:37;101690;;;8;64
78843;BME280;70542;53.774;-0.352;2023-11-21T02:10:16;101680;;;7;64
78843;BME280;70542;53.774;-0.352;2023-11-21T02:15:55;101690;;;9;61
78843;BME280;70542;53.774;-0.352;2023-11-21T02:21:34;101690;;;8;62
78843;BME280;70542;53.774;-0.352;2023-11-21T02:27:13;101700;;;8;62
78843;BME280;70542;53.774;-0.352;2023-11-21T02:32:52;101700;;;8;62
78843;BME280;70542;53.774;-0.352;2023-11-21T02:38:31;101690;;;8;62
78843;BME280;70542;53.774;-0.352;2023-11-21T02:44:14;101680;;;8;65
78843;BME280;70542;53.774;-0.352;2023-11-21T02:49:58;101680;;;8;63
78843;BME280;70542;53.774;-0.352;2023-11-21T02:55:36;101690;;;8;64
78843;BME280;70542;53.774;-0.352;2023-11-21T03:01:15;101700;;;7;67
78843;BME280;70542;53.774;-0.352;2023-11-21T03:06:54;101710;;;7;66
78843;BME280;70542;53.774;-0.352;2023-11-21T03:12:33;101720;;;7;66
78843;BME280;70542;53.774;-0.352;2023-11-21T03:18:12;101730;;;7;65
78843;BME280;70542;53.774;-0.352;2023-11-21T03:23:51;101740;;;8;64
78843;BME280;70542;53.774;-0.352;2023-11-21T03:29:29;101740;;;8;65
78843;BME280;70542;53.774;-0.352;2023-11-21T03:35:08;101750;;;7;66
78843;BME280;70542;53.774;-0.352;2023-11-21T03:40:47;101760;;;8;64
78843;BME280;70542;53.774;-0.352;2023-11-21T03:46:31;101770;;;8;63
78843;BME280;70542;53.774;-0.352;2023-11-21T03:52:10;101780;;;9;61
78843;BME280;70542;53.774;-0.352;2023-11-21T03:57:49;101780;;;8;63
78843;BME280;70542;53.774;-0.352;2023-11-21T04:03:28;101780;;;9;60
78843;BME280;70542;53.774;-0.352;2023-11-21T04:09:10;101770;;;9;59
78843;BME280;70542;53.774;-0.352;2023-11-21T04:14:49;101780;;;10;57
78843;BME280;70542;53.774;-0.352;2023-11-21T04:20:31;101780;;;11;55
78843;BME280;70542;53.774;-0.352;2023-11-21T04:26:10;101800;;;10;57
78843;BME280;70542;53.774;-0.352;2023-11-21T04:31:57;101810;;;10;56
78843;BME280;70542;53.774;-0.352;2023-11-21T04:37:36;101830;;;9;58
78843;BME280;70542;53.774;-0.352;2023-11-21T04:43:14;101850;;;9;59
78843;BME280;70542;53.774;-0.352;2023-11-21T04:48:53;101860;;;10;58
78843;BME280;70542;53.774;-0.352;2023-11-21T04:54:32;101870;;;9;60
78843;BME280;70542;53.774;-0.352;2023-11-21T05:00:12;101880;;;9;59
78843;BME280;70542;53.774;-0.352;2023-11-21T05:05:51;101890;;;10;57
78843;BME280;70542;53.774;-0.352;2023-11-21T05:11:30;101900;;;10;58
78843;BME280;70542;53.774;-0.352;2023-11-21T05:17:09;101910;;;10;57
78843;BME280;70542;53.774;-0.352;2023-11-21T05:22:48;101910;;;10;61
78843;BME280;70542;53.774;-0.352;2023-11-21T05:28:33;101920;;;10;61
78843;BME280;70542;53.774;-0.352;2023-11-21T05:34:12;101930;;;10;62
78843;BME280;70542;53.774;-0.352;2023-11-21T05:39:51;101930;;;9;64
78843;BME280;70542;53.774;-0.352;2023-11-21T05:45:29;101950;;;9;65
78843;BME280;70542;53.774;-0.352;2023-11-21T05:51:08;101960;;;9;67
78843;BME280;70542;53.774;-0.352;2023-11-21T05:56:47;101990;;;8;70
78843;BME280;70542;53.774;-0.352;2023-11-21T06:02:25;102000;;;8;69
78843;BME280;70542;53.774;-0.352;2023-11-21T06:08:14;102030;;;8;69
78843;BME280;70542;53.774;-0.352;2023-11-21T06:13:53;102050;;;7;70
78843;BME280;70542;53.774;-0.352;2023-11-21T06:19:31;102070;;;8;68
78843;BME280;70542;53.774;-0.352;2023-11-21T06:25:12;102070;;;9;67
78843;BME280;70542;53.774;-0.352;2023-11-21T06:30:57;102100;;;8;67
78843;BME280;70542;53.774;-0.352;2023-11-21T06:36:36;102110;;;8;69
78843;BME280;70542;53.774;-0.352;2023-11-21T06:42:14;102120;;;8;68
78843;BME280;70542;53.774;-0.352;2023-11-21T06:47:54;102150;;;8;67
78843;BME280;70542;53.774;-0.352;2023-11-21T06:53:33;102160;;;8;67
78843;BME280;70542;53.774;-0.352;2023-11-21T06:59:13;102180;;;7;72
78843;BME280;70542;53.774;-0.352;2023-11-21T07:04:52;102200;;;7;70
78843;BME280;70542;53.774;-0.352;2023-11-21T07:10:30;102220;;;7;69
78843;BME280;70542;53.774;-0.352;2023-11-21T07:16:09;102230;;;8;66
78843;BME280;70542;53.774;-0.352;2023-11-21T07:21:48;102250;;;8;65
78843;BME280;70542;53.774;-0.352;2023-11-21T07:27:27;102270;;;7;65
78843;BME280;70542;53.774;-0.352;2023-11-21T07:33:12;102290;;;8;65
78843;BME280;70542;53.774;-0.352;2023-11-21T07:38:51;102310;;;8;62
78843;BME280;70542;53.774;-0.352;2023-11-21T07:44:30;102320;;;8;65
78843;BME280;70542;53.774;-0.352;2023-11-21T07:50:15;102320;;;9;61
78843;BME280;70542;53.774;-0.352;2023-11-21T07:55:55;102330;;;7;65
78843;BME280;70542;53.774;-0.352;2023-11-21T08:01:34;102340;;;8;62
78843;BME280;70542;53.774;-0.352;2023-11-21T08:07:13;102350;;;8;61
78843;BME280;70542;53.774;-0.352;2023-11-21T08:12:56;102360;;;8;59
78843;BME280;70542;53.774;-0.352;2023-11-21T08:18:36;102370;;;8;60
78843;BME280;70542;53.774;-0.352;2023-11-21T08:24:14;102390;;;7;60
78843;BME280;70542;53.774;-0.352;2023-11-21T08:29:57;102400;;;9;56
78843;BME280;70542;53.774;-0.352;2023-11-21T08:35:36;102420;;;9;57
78843;BME280;70542;53.774;-0.352;2023-11-21T08:41:15;102440;;;8;60
78843;BME280;70542;53.774;-0.352;2023-11-21T08:46:57;102450;;;8;59
78843;BME280;70542;53.774;-0.352;2023-11-21T08:52:36;102450;;;9;56
78843;BME280;70542;53.774;-0.352;2023-11-21T08:58:19;102450;;;8;57
78843;BME280;70542;53.774;-0.352;2023-11-21T09:03:57;102460;;;9;54
78843;BME280;70542;53.774;-0.352;2023-11-21T09:09:42;102470;;;9;54
78843;BME280;70542;53.774;-0.352;2023-11-21T09:22:42;102500;;;9;53
78843;BME280;70542;53.774;-0.352;2023-11-21T09:28:28;102500;;;8;55
78843;BME280;70542;53.774;-0.352;2023-11-21T09:34:14;102510;;;8;59
78843;BME280;70542;53.774;-0.352;2023-11-21T09:39:53;102510;;;7;60
78843;BME280;70542;53.774;-0.352;2023-11-21T09:45:35;102530;;;8;57
78843;BME280;70542;53.774;-0.352;2023-11-21T09:51:14;102540;;;9;57
78843;BME280;70542;53.774;-0.352;2023-11-21T09:56:57;102550;;;8;58
78843;BME280;70542;53.774;-0.352;2023-11-21T10:02:38;102560;;;7;60
78843;BME280;70542;53.774;-0.352;2023-11-21T10:08:22;102560;;;7;58
78843;BME280;70542;53.774;-0.352;2023-11-21T10:14:02;102560;;;8;55
78843;BME280;70542;53.774;-0.352;2023-11-21T10:19:42;102580;;;9;55
78843;BME280;70542;53.774;-0.352;2023-11-21T10:25:22;102600;;;9;54
78843;BME280;70542;53.774;-0.352;2023-11-21T10:31:01;102600;;;10;53
78843;BME280;70542;53.774;-0.352;2023-11-21T10:36:43;102590;;;10;52
78843;BME280;70542;53.774;-0.352;2023-11-21T10:42:29;102610;;;8;58
78843;BME280;70542;53.774;-0.352;2023-11-21T11:00:54;102630;;;8;54
78843;BME280;70542;53.774;-0.352;2023-11-21T11:06:34;102630;;;8;56
78843;BME280;70542;53.774;-0.352;2023-11-21T11:13:33;102630;;;8;57
78843;BME280;70542;53.774;-0.352;2023-11-21T11:19:13;102640;;;9;57
78843;BME280;70542;53.774;-0.352;2023-11-21T11:25:17;102650;;;8;59
78843;BME280;70542;53.774;-0.352;2023-11-21T11:31:05;102650;;;8;58
78843;BME280;70542;53.774;-0.352;2023-11-21T11:37:02;102640;;;8;59
78843;BME280;70542;53.774;-0.352;2023-11-21T11:48:38;102660;;;10;54
78843;BME280;70542;53.774;-0.352;2023-11-21T12:00:14;102670;;;11;50
78843;BME280;70542;53.774;-0.352;2023-11-21T12:05:53;102670;;;11;50
78843;BME280;70542;53.774;-0.352;2023-11-21T12:11:37;102670;;;11;49
78843;BME280;70542;53.774;-0.352;2023-11-21T12:17:40;102670;;;10;50
78843;BME280;70542;53.774;-0.352;2023-11-21T12:23:20;102670;;;9;53
78843;BME280;70542;53.774;-0.352;2023-11-21T12:29:21;102670;;;9;54
78843;BME280;70542;53.774;-0.352;2023-11-21T12:35:00;102670;;;8;55
78843;BME280;70542;53.774;-0.352;2023-11-21T12:40:40;102670;;;9;55
78843;BME280;70542;53.774;-0.352;2023-11-21T12:46:22;102680;;;10;52
78843;BME280;70542;53.774;-0.352;2023-11-21T12:52:05;102690;;;8;53
78843;BME280;70542;53.774;-0.352;2023-11-21T12:57:44;102700;;;9;51
78843;BME280;70542;53.774;-0.352;2023-11-21T13:03:25;102700;;;9;51
78843;BME280;70542;53.774;-0.352;2023-11-21T13:09:04;102720;;;10;50
78843;BME280;70542;53.774;-0.352;2023-11-21T13:14:43;102730;;;10;50
78843;BME280;70542;53.774;-0.352;2023-11-21T13:20:28;102730;;;12;46
78843;BME280;70542;53.774;-0.352;2023-11-21T13:26:07;102730;;;11;48
78843;BME280;70542;53.774;-0.352;2023-11-21T13:31:46;102740;;;10;48
78843;BME280;70542;53.774;-0.352;2023-11-21T13:37:25;102750;;;11;48
78843;BME280;70542;53.774;-0.352;2023-11-21T13:43:04;102760;;;11;46
78843;BME280;70542;53.774;-0.352;2023-11-21T13:48:43;102760;;;12;45
78843;BME280;70542;53.774;-0.352;2023-11-21T13:54:58;102770;;;11;47
78843;BME280;70542;53.774;-0.352;2023-11-21T14:00:37;102780;;;10;48
78843;BME280;70542;53.774;-0.352;2023-11-21T14:06:17;102780;;;10;49
78843;BME280;70542;53.774;-0.352;2023-11-21T14:13:03;102800;;;10;48
78843;BME280;70542;53.774;-0.352;2023-11-21T14:18:42;102790;;;10;48
78843;BME280;70542;53.774;-0.352;2023-11-21T14:24:22;102790;;;11;46
78843;BME280;70542;53.774;-0.352;2023-11-21T14:30:01;102790;;;12;44
78843;BME280;70542;53.774;-0.352;2023-11-21T14:35:41;102800;;;11;46
78843;BME280;70542;53.774;-0.352;2023-11-21T14:41:20;102820;;;11;48
78843;BME280;70542;53.774;-0.352;2023-11-21T14:46:59;102820;;;11;49
78843;BME280;70542;53.774;-0.352;2023-11-21T14:52:39;102810;;;11;50
78843;BME280;70542;53.774;-0.352;2023-11-21T14:58:25;102820;;;11;49
78843;BME280;70542;53.774;-0.352;2023-11-21T15:04:14;102820;;;10;50
78843;BME280;70542;53.774;-0.352;2023-11-21T15:09:53;102820;;;10;50
78843;BME280;70542;53.774;-0.352;2023-11-21T15:15:32;102830;;;10;50
78843;BME280;70542;53.774;-0.352;2023-11-21T15:21:11;102840;;;9;51
78843;BME280;70542;53.774;-0.352;2023-11-21T15:27:13;102850;;;10;50
78843;BME280;70542;53.774;-0.352;2023-11-21T15:33:08;102850;;;10;49
78843;BME280;70542;53.774;-0.352;2023-11-21T15:38:52;102860;;;10;50
78843;BME280;70542;53.774;-0.352;2023-11-21T15:44:39;102880;;;9;54
78843;BME280;70542;53.774;-0.352;2023-11-21T15:50:43;102880;;;8;56
78843;BME280;70542;53.774;-0.352;2023-11-21T15:56:30;102900;;;7;58
78843;BME280;70542;53.774;-0.352;2023-11-21T16:02:10;102910;;;7;58
78843;BME280;70542;53.774;-0.352;2023-11-21T16:08:30;102920;;;8;57
78843;BME280;70542;53.774;-0.352;2023-11-21T16:14:21;102930;;;8;55
78843;BME280;70542;53.774;-0.352;2023-11-21T16:20:16;102930;;;8;56
78843;BME280;70542;53.774;-0.352;2023-11-21T16:26:04;102920;;;9;54
78843;BME280;70542;53.774;-0.352;2023-11-21T16:31:52;102910;;;9;52
78843;BME280;70542;53.774;-0.352;2023-11-21T16:37:55;102910;;;9;50
78843;BME280;70542;53.774;-0.352;2023-11-21T16:43:45;102930;;;10;48
78843;BME280;70542;53.774;-0.352;2023-11-21T16:49:39;102950;;;11;47
78843;BME280;70542;53.774;-0.352;2023-11-21T16:55:21;102960;;;10;48
78843;BME280;70542;53.774;-0.352;2023-11-21T17:01:06;102960;;;10;47
78843;BME280;70542;53.774;-0.352;2023-11-21T17:06:55;102960;;;11;46
78843;BME280;70542;53.774;-0.352;2023-11-21T17:12:38;102960;;;10;46
78843;BME280;70542;53.774;-0.352;2023-11-21T17:18:24;102960;;;10;46
78843;BME280;70542;53.774;-0.352;2023-11-21T17:24:11;102960;;;10;46
78843;BME280;70542;53.774;-0.352;2023-11-21T17:29:58;102980;;;9;48
78843;BME280;70542;53.774;-0.352;2023-11-21T17:35:39;102990;;;9;49
78843;BME280;70542;53.774;-0.352;2023-11-21T17:41:19;102980;;;8;49
78843;BME280;70542;53.774;-0.352;2023-11-21T17:46:58;102980;;;10;47
78843;BME280;70542;53.774;-0.352;2023-11-21T17:52:37;102970;;;11;44
78843;BME280;70542;53.774;-0.352;2023-11-21T17:58:20;102990;;;11;43
78843;BME280;70542;53.774;-0.352;2023-11-21T18:04:14;102980;;;12;41
78843;BME280;70542;53.774;-0.352;2023-11-21T18:09:58;102990;;;12;41
78843;BME280;70542;53.774;-0.352;2023-11-21T18:15:38;102990;;;12;42
78843;BME280;70542;53.774;-0.352;2023-11-21T18:21:24;102980;;;13;41
78843;BME280;70542;53.774;-0.352;2023-11-21T18:27:11;103000;;;12;41
78843;BME280;70542;53.774;-0.352;2023-11-21T18:32:53;103000;;;12;41
78843;BME280;70542;53.774;-0.352;2023-11-21T18:38:33;103000;;;12;41
78843;BME280;70542;53.774;-0.352;2023-11-21T18:44:12;103020;;;12;41
78843;BME280;70542;53.774;-0.352;2023-11-21T18:49:51;103000;;;12;42
78843;BME280;70542;53.774;-0.352;2023-11-21T18:55:32;102990;;;11;43
78843;BME280;70542;53.774;-0.352;2023-11-21T19:01:23;102990;;;11;43
78843;BME280;70542;53.774;-0.352;2023-11-21T19:07:03;102990;;;11;43
78843;BME280;70542;53.774;-0.352;2023-11-21T19:12:42;103010;;;11;43
78843;BME280;70542;53.774;-0.352;2023-11-21T19:18:21;103040;;;10;45
78843;BME280;70542;53.774;-0.352;2023-11-21T19:24:00;103020;;;10;46
78843;BME280;70542;53.774;-0.352;2023-11-21T19:29:39;103040;;;10;47
78843;BME280;70542;53.774;-0.352;2023-11-21T19:35:18;103030;;;9;48
78843;BME280;70542;53.774;-0.352;2023-11-21T19:40:57;103040;;;9;47
78843;BME280;70542;53.774;-0.352;2023-11-21T19:46:41;103050;;;9;46
78843;BME280;70542;53.774;-0.352;2023-11-21T19:52:20;103040;;;10;44
78843;BME280;70542;53.774;-0.352;2023-11-21T19:58:10;103050;;;10;45
78843;BME280;70542;53.774;-0.352;2023-11-21T20:03:53;103050;;;10;43
78843;BME280;70542;53.774;-0.352;2023-11-21T20:09:32;103050;;;10;44
78843;BME280;70542;53.774;-0.352;2023-11-21T20:15:15;103040;;;11;42
78843;BME280;70542;53.774;-0.352;2023-11-21T20:20:59;103030;;;10;42
78843;BME280;70542;53.774;-0.352;2023-11-21T20:26:47;103040;;;11;40
78843;BME280;70542;53.774;-0.352;2023-11-21T20:32:26;103050;;;11;41
78843;BME280;70542;53.774;-0.352;2023-11-21T20:38:08;103050;;;11;41
78843;BME280;70542;53.774;-0.352;2023-11-21T20:44:03;103050;;;11;42
78843;BME280;70542;53.774;-0.352;2023-11-21T20:49:43;103050;;;11;41
78843;BME280;70542;53.774;-0.352;2023-11-21T20:55:22;103050;;;11;42
78843;BME280;70542;53.774;-0.352;2023-11-21T21:01:01;103060;;;10;42
78843;BME280;70542;53.774;-0.352;2023-11-21T21:06:40;103060;;;11;42
78843;BME280;70542;53.774;-0.352;2023-11-21T21:12:23;103060;;;11;42
78843;BME280;70542;53.774;-0.352;2023-11-21T21:18:07;103080;;;11;41
78843;BME280;70542;53.774;-0.352;2023-11-21T21:23:46;103060;;;11;42
78843;BME280;70542;53.774;-0.352;2023-11-21T21:29:25;103060;;;10;44
78843;BME280;70542;53.774;-0.352;2023-11-21T21:35:05;103060;;;10;43
78843;BME280;70542;53.774;-0.352;2023-11-21T21:40:44;103080;;;10;44
78843;BME280;70542;53.774;-0.352;2023-11-21T21:46:26;103060;;;10;43
78843;BME280;70542;53.774;-0.352;2023-11-21T21:52:06;103070;;;10;44
78843;BME280;70542;53.774;-0.352;2023-11-21T21:57:51;103070;;;10;44
78843;BME280;70542;53.774;-0.352;2023-11-21T22:03:30;103070;;;10;43
78843;BME280;70542;53.774;-0.352;2023-11-21T22:09:30;103060;;;11;43
78843;BME280;70542;53.774;-0.352;2023-11-21T22:15:14;103050;;;11;42
78843;BME280;70542;53.774;-0.352;2023-11-21T22:21:01;103050;;;11;41
78843;BME280;70542;53.774;-0.352;2023-11-21T22:26:46;103040;;;11;41
78843;BME280;70542;53.774;-0.352;2023-11-21T22:32:26;103040;;;11;41
78843;BME280;70542;53.774;-0.352;2023-11-21T22:38:06;103040;;;11;41
78843;BME280;70542;53.774;-0.352;2023-11-21T22:43:46;103030;;;11;41
78843;BME280;70542;53.774;-0.352;2023-11-21T22:49:30;103030;;;12;40
78843;BME280;70542;53.774;-0.352;2023-11-21T22:55:09;103030;;;11;40
78843;BME280;70542;53.774;-0.352;2023-11-21T23:00:48;103040;;;11;41
78843;BME280;70542;53.774;-0.352;2023-11-21T23:06:42;103030;;;11;41
78843;BME280;70542;53.774;-0.352;2023-11-21T23:12:30;103020;;;11;41
78843;BME280;70542;53.774;-0.352;2023-11-21T23:18:13;103030;;;11;41
78843;BME280;70542;53.774;-0.352;2023-11-21T23:24:00;103030;;;11;41
78843;BME280;70542;53.774;-0.352;2023-11-21T23:29:44;103030;;;11;41
78843;BME280;70542;53.774;-0.352;2023-11-21T23:35:33;103030;;;11;42
78843;BME280;70542;53.774;-0.352;2023-11-21T23:41:12;103030;;;11;42
78843;BME280;70542;53.774;-0.352;2023-11-21T23:46:59;103030;;;9;45
78843;BME280;70542;53.774;-0.352;2023-11-21T23:52:38;103020;;;9;47
78843;BME280;70542;53.774;-0.352;2023-11-21T23:58:17;103010;;;11;44
